createdAt,value
2023-01-07T00:03:58.643Z,100693.06
2023-01-07T00:09:03.661Z,100691.09
2023-01-07T00:14:09.783Z,100702.09
2023-01-07T00:19:15.606Z,100706.59
2023-01-07T00:24:19.083Z,100720.44
2023-01-07T00:29:21.980Z,100713.09
2023-01-07T00:34:25.339Z,100713.13
2023-01-07T00:39:28.135Z,100708.63
2023-01-07T00:44:31.637Z,100717.97
2023-01-07T00:49:34.743Z,100714.50
2023-01-07T00:54:37.662Z,100714.47
2023-01-07T00:59:40.597Z,100711.06
2023-01-07T01:04:43.784Z,100714.53
2023-01-07T01:09:46.652Z,100719.75
2023-01-07T01:14:49.653Z,100720.53
2023-01-07T01:19:52.557Z,100718.09
2023-01-07T01:24:55.303Z,100714.78
2023-01-07T01:29:59.501Z,100709.69
2023-01-07T01:35:02.453Z,100713.44
2023-01-07T01:40:07.333Z,100702.47
2023-01-07T01:45:14.292Z,100702.97
2023-01-07T01:50:50.519Z,100701.78
2023-01-07T01:56:03.303Z,100706.09
2023-01-07T02:01:06.437Z,100692.09
2023-01-07T02:06:21.021Z,100681.72
2023-01-07T02:11:57.682Z,100677.63
2023-01-07T02:17:17.605Z,100669.81
2023-01-07T02:22:57.345Z,100676.06
2023-01-07T02:28:41.969Z,100673.13
2023-01-07T02:34:09.139Z,100664.06
2023-01-07T02:39:13.930Z,100667.06
2023-01-07T02:44:41.657Z,100667.53
2023-01-07T02:49:48.179Z,100654.63
2023-01-07T02:55:19.494Z,100660.63
2023-01-07T03:00:48.124Z,100665.47
2023-01-07T03:06:24.671Z,100668.72
2023-01-07T03:11:39.244Z,100678.41
2023-01-07T03:16:54.278Z,100660.88
2023-01-07T03:22:00.061Z,100665.66
2023-01-07T03:27:06.382Z,100667.97
2023-01-07T03:32:27.833Z,100671.13
2023-01-07T03:37:32.465Z,100662.19
2023-01-07T03:42:42.138Z,100667.00
2023-01-07T03:47:49.605Z,100672.66
2023-01-07T03:52:52.641Z,100666.03
2023-01-07T03:57:57.074Z,100675.97
2023-01-07T04:02:59.974Z,100661.03
2023-01-07T04:08:02.950Z,100663.50
2023-01-07T04:13:05.999Z,100672.22
2023-01-07T04:18:08.948Z,100664.13
2023-01-07T04:23:11.855Z,100668.16
2023-01-07T04:28:15.377Z,100673.25
2023-01-07T04:33:18.280Z,100686.72
2023-01-07T04:38:21.328Z,100684.31
2023-01-07T04:43:24.423Z,100684.19
2023-01-07T04:48:27.413Z,100661.03
2023-01-07T04:53:30.450Z,100663.47
2023-01-07T04:58:33.443Z,100661.00
2023-01-07T05:03:36.373Z,100663.53
2023-01-07T05:08:39.130Z,100651.44
2023-01-07T05:13:42.070Z,100650.94
2023-01-07T05:18:45.419Z,100666.81
2023-01-07T05:23:48.354Z,100660.28
2023-01-07T05:28:51.279Z,100654.69
2023-01-07T05:33:54.256Z,100660.50
2023-01-07T05:38:57.178Z,100676.75
2023-01-07T05:44:00.269Z,100663.41
2023-01-07T05:49:03.339Z,100662.50
2023-01-07T05:54:07.404Z,100673.97
2023-01-07T05:59:10.350Z,100683.41
2023-01-07T06:04:13.362Z,100681.25
2023-01-07T06:09:16.275Z,100682.75
2023-01-07T06:14:19.000Z,100675.81
2023-01-07T06:19:23.087Z,100670.13
2023-01-07T06:24:26.035Z,100673.69
2023-01-07T06:29:29.946Z,100667.88
2023-01-07T06:34:32.916Z,100670.78
2023-01-07T06:39:35.863Z,100670.03
2023-01-07T06:44:38.678Z,100673.59
2023-01-07T06:49:41.584Z,100671.81
2023-01-07T06:54:45.203Z,100679.22
2023-01-07T06:59:49.363Z,100692.56
2023-01-07T07:04:52.893Z,100714.50
2023-01-07T07:09:55.859Z,100699.63
2023-01-07T07:14:58.778Z,100704.78
2023-01-07T07:20:01.900Z,100701.09
2023-01-07T07:25:05.802Z,100713.41
2023-01-07T07:30:09.439Z,100711.25
2023-01-07T07:35:13.324Z,100706.28
2023-01-07T07:40:16.386Z,100705.84
2023-01-07T07:45:19.906Z,100718.63
2023-01-07T07:50:23.399Z,100706.97
2023-01-07T07:55:26.779Z,100722.13
2023-01-07T08:00:29.619Z,100713.19
2023-01-07T08:05:32.843Z,100709.16
2023-01-07T08:10:36.094Z,100710.25
2023-01-07T08:15:39.052Z,100702.00
2023-01-07T08:20:42.050Z,100699.25
2023-01-07T08:25:45.009Z,100693.66
2023-01-07T08:30:48.566Z,100681.56
2023-01-07T08:35:51.488Z,100672.75
2023-01-07T08:40:54.765Z,100672.34
2023-01-07T08:45:57.702Z,100673.69
2023-01-07T08:51:00.410Z,100659.19
2023-01-07T08:56:03.689Z,100659.50
2023-01-07T09:01:08.616Z,100676.47
2023-01-07T09:06:11.919Z,100683.47
2023-01-07T09:11:15.410Z,100680.81
2023-01-07T09:16:18.548Z,100680.69
2023-01-07T09:21:21.296Z,100679.28
2023-01-07T09:26:24.351Z,100682.06
2023-01-07T09:31:27.228Z,100667.88
2023-01-07T09:36:31.127Z,100667.97
2023-01-07T09:41:58.687Z,100665.09
2023-01-07T09:47:03.495Z,100661.03
2023-01-07T09:52:22.690Z,100651.56
2023-01-07T09:57:27.921Z,100643.94
2023-01-07T10:03:16.727Z,100644.19
2023-01-07T10:08:55.694Z,100646.16
2023-01-07T10:14:22.659Z,100639.41
2023-01-07T10:19:33.235Z,100635.66
2023-01-07T10:24:43.405Z,100636.19
2023-01-07T10:29:59.121Z,100630.06
2023-01-07T10:35:03.816Z,100625.63
2023-01-07T10:40:12.857Z,100611.88
2023-01-07T10:45:43.994Z,100612.03
2023-01-07T10:51:07.902Z,100610.34
2023-01-07T10:56:32.547Z,100603.13
2023-01-07T11:01:44.081Z,100592.66
2023-01-07T11:07:07.358Z,100581.75
2023-01-07T11:12:58.734Z,100573.28
2023-01-07T11:18:25.595Z,100576.16
2023-01-07T11:23:42.788Z,100560.34
2023-01-07T11:28:56.565Z,100562.38
2023-01-07T11:34:02.244Z,100546.53
2023-01-07T11:39:19.682Z,100541.00
2023-01-07T11:44:23.272Z,100542.41
2023-01-07T11:49:29.048Z,100533.47
2023-01-07T11:54:32.814Z,100530.16
2023-01-07T11:59:35.817Z,100524.53
2023-01-07T12:04:40.373Z,100518.94
2023-01-07T12:09:46.024Z,100519.78
2023-01-07T12:14:49.580Z,100506.38
2023-01-07T12:20:52.474Z,100506.47
2023-01-07T12:26:21.106Z,100497.38
2023-01-07T12:32:09.034Z,100488.81
2023-01-07T12:37:35.198Z,100491.16
2023-01-07T12:42:50.985Z,100493.66
2023-01-07T12:48:04.530Z,100483.88
2023-01-07T12:53:31.913Z,100478.59
2023-01-07T12:58:44.820Z,100480.78
2023-01-07T13:04:40.098Z,100476.31
2023-01-07T13:09:57.138Z,100457.91
2023-01-07T13:15:08.998Z,100460.06
2023-01-07T13:20:17.764Z,100470.69
2023-01-07T13:25:33.833Z,100465.38
2023-01-07T13:31:04.838Z,100459.25
2023-01-07T13:36:14.412Z,100452.81
2023-01-07T13:41:37.389Z,100445.16
2023-01-07T13:46:44.733Z,100445.16
2023-01-07T13:51:47.759Z,100449.25
2023-01-07T13:56:51.030Z,100449.56
2023-01-07T14:02:20.155Z,100460.63
2023-01-07T14:07:23.935Z,100451.63
2023-01-07T14:12:51.685Z,100461.00
2023-01-07T14:18:38.221Z,100478.28
2023-01-07T14:24:02.565Z,100469.00
2023-01-07T14:29:48.507Z,100474.00
2023-01-07T14:35:10.537Z,100474.13
2023-01-07T14:40:26.351Z,100470.84
2023-01-07T14:45:41.432Z,100475.81
2023-01-07T14:51:06.210Z,100465.97
2023-01-07T14:56:31.628Z,100476.06
2023-01-07T15:02:15.030Z,100471.34
2023-01-07T15:07:24.503Z,100475.25
2023-01-07T15:12:53.624Z,100479.53
2023-01-07T15:17:56.993Z,100473.84
2023-01-07T15:23:44.218Z,100479.97
2023-01-07T15:29:53.837Z,100477.88
2023-01-07T15:34:58.086Z,100486.53
2023-01-07T15:40:01.847Z,100478.03
2023-01-07T15:45:05.708Z,100480.25
2023-01-07T15:50:30.336Z,100482.91
2023-01-07T15:55:41.360Z,100478.16
2023-01-07T16:00:44.874Z,100478.28
2023-01-07T16:05:48.602Z,100483.72
2023-01-07T16:11:22.107Z,100493.72
2023-01-07T16:16:26.238Z,100481.91
2023-01-07T16:21:39.405Z,100477.63
2023-01-07T16:26:57.234Z,100488.16
2023-01-07T16:32:01.366Z,100498.03
2023-01-07T16:37:11.282Z,100497.97
2023-01-07T16:42:20.173Z,100519.00
2023-01-07T16:47:33.973Z,100519.19
2023-01-07T16:52:36.886Z,100519.53
2023-01-07T16:57:43.007Z,100516.72
2023-01-07T17:03:00.690Z,100514.72
2023-01-07T17:08:18.887Z,100532.22
2023-01-07T17:13:24.830Z,100540.44
2023-01-07T17:18:29.476Z,100541.16
2023-01-07T17:23:39.857Z,100544.41
2023-01-07T17:28:55.033Z,100530.16
2023-01-07T17:33:58.233Z,100529.94
2023-01-07T17:39:01.378Z,100535.34
2023-01-07T17:44:06.675Z,100551.25
2023-01-07T17:49:11.716Z,100540.72
2023-01-07T17:54:25.557Z,100542.41
2023-01-07T17:59:30.432Z,100549.34
2023-01-07T18:04:33.467Z,100557.25
2023-01-07T18:09:37.017Z,100546.22
2023-01-07T18:14:40.131Z,100546.84
2023-01-07T18:19:44.067Z,100549.22
2023-01-07T18:24:49.057Z,100544.31
2023-01-07T18:29:52.006Z,100545.13
2023-01-07T18:34:54.727Z,100551.38
2023-01-07T18:40:02.211Z,100552.94
2023-01-07T18:45:07.330Z,100557.59
2023-01-07T18:50:10.335Z,100559.63
2023-01-07T18:55:13.732Z,100537.72
2023-01-07T19:00:19.831Z,100544.09
2023-01-07T19:05:22.837Z,100541.19
2023-01-07T19:10:26.736Z,100541.19
2023-01-07T19:15:29.867Z,100543.13
2023-01-07T19:20:33.074Z,100531.75
2023-01-07T19:25:35.871Z,100535.72
2023-01-07T19:30:38.985Z,100541.19
2023-01-07T19:35:41.935Z,100520.41
2023-01-07T19:40:45.852Z,100536.66
2023-01-07T19:45:56.576Z,100539.31
2023-01-07T19:51:02.204Z,100527.69
2023-01-07T19:56:11.057Z,100530.31
2023-01-07T20:01:18.082Z,100524.91
2023-01-07T20:06:25.885Z,100522.19
2023-01-07T20:11:28.528Z,100524.91
2023-01-07T20:16:31.704Z,100514.38
2023-01-07T20:21:34.472Z,100512.50
2023-01-07T20:26:38.312Z,100506.50
2023-01-07T20:31:41.344Z,100515.25
2023-01-07T20:36:44.309Z,100505.66
2023-01-07T20:41:47.144Z,100502.91
2023-01-07T20:46:50.571Z,100508.19
2023-01-07T20:51:54.203Z,100507.94
2023-01-07T20:56:57.140Z,100495.50
2023-01-07T21:02:00.986Z,100484.22
2023-01-07T21:07:04.097Z,100489.28
2023-01-07T21:12:07.225Z,100489.28
2023-01-07T21:17:11.066Z,100475.97
2023-01-07T21:22:14.016Z,100481.09
2023-01-07T21:27:17.212Z,100473.81
2023-01-07T21:32:20.055Z,100478.09
2023-01-07T21:37:23.159Z,100469.50
2023-01-07T21:42:26.065Z,100471.19
2023-01-07T21:47:30.005Z,100473.94
2023-01-07T21:52:35.328Z,100467.94
2023-01-07T21:57:38.643Z,100456.56
2023-01-07T22:02:41.514Z,100455.50
2023-01-07T22:07:44.547Z,100457.03
2023-01-07T22:12:47.550Z,100453.56
2023-01-07T22:17:50.548Z,100465.53
2023-01-07T22:22:53.712Z,100460.97
2023-01-07T22:28:02.857Z,100447.13
2023-01-07T22:33:05.897Z,100447.13
2023-01-07T22:38:11.784Z,100439.22
2023-01-07T22:43:18.298Z,100433.94
2023-01-07T22:48:27.550Z,100424.63
2023-01-07T22:53:30.800Z,100416.00
2023-01-07T22:58:33.734Z,100418.16
2023-01-07T23:03:37.238Z,100398.97
2023-01-07T23:08:41.049Z,100404.00
2023-01-07T23:13:43.745Z,100386.78
2023-01-07T23:18:47.957Z,100384.41
2023-01-07T23:23:50.962Z,100387.63
2023-01-07T23:28:54.175Z,100378.88
2023-01-07T23:33:57.133Z,100382.22
2023-01-07T23:39:00.106Z,100381.28
2023-01-07T23:44:03.140Z,100381.28
2023-01-07T23:49:06.092Z,100382.81
2023-01-07T23:54:09.533Z,100381.16
2023-01-07T23:59:13.280Z,100373.25
